»·PEaware :: RRF98 KBOI-KRTS

RRF98 :: KBOI-KRTS

FLIGHT INFORMATION

Flight Status: Arrived
Operator: Unknown
More flights by this operator :: More flights under this callsign
Pilot: Matthew M. (8235)
Aircraft: BRITISH AERO BAe-146-100 STATESMAN
(B461)
More flights by this aircraft type
Origin: KBOI Boise Air Terminal/Gowen
United States
Destination: KRTS Reno/Stead
United States
More flights between these airports :: More routes between these airports
Route: BOI3 BOI REO J7 FMG
File this flight plan on PilotEdge
Remarks:
Altitude:
(Current/Filed)
26,000ft
Speed:
(Current/Filed)
350kts
Departed: 01-May-20 09:21 AM
Arrived: 01-May-20 10:18 AM
Distance/Time
Traveled:
286nm/0:57
Distance/Time
To Go:
Arrived

Flight Plot

Page will automatically refresh every two minutes.


Map Options




Map Legend


Flown Route
Filed Route
Departure Airport
Arrival Airport
Navaid (VOR, NDB)
Fix

Horizontal Profiles

Position Reports

Time Latitude Longitude Heading Altitude Ground
Speed
01-May-20 09:04 43.564233 -116.235854 173 2879ft 0kts
01-May-20 09:05 43.564233 -116.235854 173 2879ft 0kts
01-May-20 09:06 43.564233 -116.235854 173 2879ft 0kts
01-May-20 09:07 43.564233 -116.235854 173 2879ft 0kts
01-May-20 09:08 43.564233 -116.235854 173 2879ft 0kts
01-May-20 09:09 43.564233 -116.235854 173 2879ft 0kts
01-May-20 09:10 43.564232 -116.235854 173 2879ft 0kts
01-May-20 09:11 43.564137 -116.235841 174 2879ft 2kts
01-May-20 09:12 43.563857 -116.234817 76 2879ft 8kts
01-May-20 09:13 43.565240 -116.233343 324 2879ft 6kts
01-May-20 09:14 43.566166 -116.237712 263 2879ft 15kts
01-May-20 09:15 43.566542 -116.242163 5 2879ft 10kts
01-May-20 09:16 43.568919 -116.242014 2 2879ft 0kts
01-May-20 09:17 43.568923 -116.242014 2 2879ft 0kts
01-May-20 09:18 43.568926 -116.242013 2 2879ft 0kts
01-May-20 09:19 43.569637 -116.241436 116 2879ft 1kts
01-May-20 09:20 43.556028 -116.200782 114 4193ft 164kts
01-May-20 09:21 43.531552 -116.125898 113 6015ft 239kts
01-May-20 09:22 43.500061 -116.043277 140 8057ft 259kts
01-May-20 09:23 43.432952 -116.063165 230 9118ft 283kts
01-May-20 09:24 43.388899 -116.153690 238 10247ft 288kts
01-May-20 09:25 43.344107 -116.251665 239 13052ft 306kts
01-May-20 09:26 43.298092 -116.351590 238 16716ft 313kts
01-May-20 09:27 43.251964 -116.455123 239 19923ft 324kts
01-May-20 09:28 43.203746 -116.561750 238 22666ft 335kts
01-May-20 09:29 43.153485 -116.672055 238 25073ft 345kts
01-May-20 09:30 43.101296 -116.784410 238 27078ft 354kts
01-May-20 09:31 43.052568 -116.889527 237 26046ft 311kts
01-May-20 09:32 43.004723 -116.990440 237 26012ft 318kts
01-May-20 09:33 42.956356 -117.092078 237 26006ft 320kts
01-May-20 09:35 42.908273 -117.194583 237 26004ft 322kts
01-May-20 09:36 42.859775 -117.297552 237 26002ft 323kts
01-May-20 09:37 42.811027 -117.400674 237 26001ft 324kts
01-May-20 09:38 42.761980 -117.503932 237 25999ft 325kts
01-May-20 09:39 42.712793 -117.607237 237 25998ft 326kts
01-May-20 09:40 42.662619 -117.712428 237 25998ft 337kts
01-May-20 09:41 42.610912 -117.820399 237 25998ft 346kts
01-May-20 09:42 42.532831 -117.899028 209 25999ft 359kts
01-May-20 09:43 42.440157 -117.952279 207 25998ft 364kts
01-May-20 09:44 42.346938 -118.007266 208 25997ft 366kts
01-May-20 09:45 42.253866 -118.064188 208 25997ft 367kts
01-May-20 09:46 42.160869 -118.121188 208 25997ft 368kts
01-May-20 09:47 42.067072 -118.177984 208 25996ft 369kts
01-May-20 09:48 41.973393 -118.234524 208 25996ft 369kts
01-May-20 09:49 41.879722 -118.290753 208 25993ft 369kts
01-May-20 09:50 41.785807 -118.346926 208 25994ft 369kts
01-May-20 09:51 41.691659 -118.403173 208 25993ft 369kts
01-May-20 09:52 41.597783 -118.458988 208 25994ft 369kts
01-May-20 09:53 41.503993 -118.514669 208 25994ft 369kts
01-May-20 09:53 41.425483 -118.561094 207 25993ft 369kts
01-May-20 09:54 41.331694 -118.616360 208 25995ft 369kts
01-May-20 09:56 41.222005 -118.680808 208 25995ft 369kts
01-May-20 09:56 41.144542 -118.726263 207 25993ft 369kts
01-May-20 09:57 41.050250 -118.781239 208 25997ft 369kts
01-May-20 09:59 40.940596 -118.845076 207 25995ft 369kts
01-May-20 09:59 40.862943 -118.890182 207 25106ft 367kts
01-May-20 10:00 40.769798 -118.944065 208 24176ft 361kts
01-May-20 10:01 40.679781 -118.995992 207 23994ft 346kts
01-May-20 10:02 40.591117 -119.047004 207 23722ft 349kts
01-May-20 10:03 40.501251 -119.098664 207 22735ft 355kts
01-May-20 10:04 40.411084 -119.150249 207 22025ft 352kts
01-May-20 10:05 40.321731 -119.201207 207 21407ft 349kts
01-May-20 10:06 40.233038 -119.251790 207 20320ft 344kts
01-May-20 10:07 40.145977 -119.301886 207 19174ft 340kts
01-May-20 10:08 40.060022 -119.351672 207 18149ft 336kts
01-May-20 10:09 39.981507 -119.414078 221 16908ft 328kts
01-May-20 10:10 39.913064 -119.491378 223 15539ft 323kts
01-May-20 10:11 39.846117 -119.568457 223 14300ft 319kts
01-May-20 10:12 39.779798 -119.644789 222 13049ft 316kts
01-May-20 10:13 39.706679 -119.698002 222 11470ft 285kts
01-May-20 10:14 39.677641 -119.776561 258 9010ft 194kts
01-May-20 10:15 39.667500 -119.831061 251 6609ft 132kts
01-May-20 10:16 39.662707 -119.873465 274 5058ft 94kts
01-May-20 10:17 39.662403 -119.885840 152 5058ft 10kts
01-May-20 10:18 39.661430 -119.883693 92 5058ft 0kts
01-May-20 10:19 39.661429 -119.883673 92 5058ft 0kts
01-May-20 10:20 39.661429 -119.883673 92 5058ft 0kts
01-May-20 10:21 39.661429 -119.883673 92 5058ft 0kts
01-May-20 10:22 39.661429 -119.883673 92 5058ft 0kts

Navigation Log

Ident Type
Flight plan parsing failed, navigation log unavailable